createdAt,value
2022-11-06T00:00:32.280Z,88.29
2022-11-06T00:01:32.980Z,88.18
2022-11-06T00:02:32.283Z,88.29
2022-11-06T00:03:32.267Z,88.39
2022-11-06T00:04:32.457Z,88.49
2022-11-06T00:05:32.261Z,88.59
2022-11-06T00:06:32.367Z,88.59
2022-11-06T00:07:32.584Z,88.80
2022-11-06T00:08:32.387Z,88.90
2022-11-06T00:09:32.906Z,88.80
2022-11-06T00:10:32.227Z,88.80
2022-11-06T00:11:32.240Z,88.90
2022-11-06T00:12:32.207Z,89.11
2022-11-06T00:13:32.309Z,89.11
2022-11-06T00:14:32.215Z,89.11
2022-11-06T00:15:32.324Z,89.25
2022-11-06T00:16:32.337Z,89.25
2022-11-06T00:17:32.445Z,89.36
2022-11-06T00:18:32.244Z,89.46
2022-11-06T00:19:32.464Z,89.56
2022-11-06T00:20:32.575Z,89.76
2022-11-06T00:21:32.365Z,89.66
2022-11-06T00:22:32.172Z,89.87
2022-11-06T00:23:32.700Z,89.87
2022-11-06T00:24:32.703Z,89.97
2022-11-06T00:25:32.122Z,90.18
2022-11-06T00:26:32.402Z,90.28
2022-11-06T00:27:32.202Z,90.38
2022-11-06T00:28:32.933Z,90.38
2022-11-06T00:29:32.744Z,90.28
2022-11-06T00:30:32.952Z,90.38
2022-11-06T00:31:32.122Z,90.38
2022-11-06T00:32:32.230Z,90.53
2022-11-06T00:33:32.569Z,90.48
2022-11-06T00:34:32.070Z,90.48
2022-11-06T00:35:32.176Z,90.48
2022-11-06T00:36:32.372Z,90.48
2022-11-06T00:37:32.791Z,90.38
2022-11-06T00:38:32.182Z,90.38
2022-11-06T00:39:32.089Z,90.18
2022-11-06T00:40:32.079Z,90.18
2022-11-06T00:41:32.620Z,89.87
2022-11-06T00:42:32.949Z,89.97
2022-11-06T00:43:32.420Z,89.87
2022-11-06T00:44:32.028Z,89.97
2022-11-06T00:45:32.042Z,89.97
2022-11-06T00:46:32.047Z,90.08
2022-11-06T00:47:31.986Z,90.18
2022-11-06T00:48:31.967Z,90.18
2022-11-06T00:49:31.975Z,90.28
2022-11-06T00:50:31.959Z,90.18
2022-11-06T00:51:31.963Z,90.08
2022-11-06T00:52:31.957Z,89.97
2022-11-06T00:53:31.997Z,89.97
2022-11-06T00:54:32.086Z,89.97
2022-11-06T00:55:31.969Z,89.72
2022-11-06T00:56:32.103Z,89.62
2022-11-06T00:57:31.907Z,89.52
2022-11-06T00:58:31.914Z,89.21
2022-11-06T00:59:32.005Z,89.11
2022-11-06T01:00:32.338Z,89.01
2022-11-06T01:01:32.421Z,88.90
2022-11-06T01:02:32.083Z,88.59
2022-11-06T01:03:31.855Z,88.45
2022-11-06T01:04:32.157Z,88.24
2022-11-06T01:05:31.847Z,88.35
2022-11-06T01:06:32.294Z,88.14
2022-11-06T01:07:32.059Z,87.73
2022-11-06T01:08:33.262Z,87.63
2022-11-06T01:09:31.862Z,87.73
2022-11-06T01:10:32.200Z,87.63
2022-11-06T01:11:52.390Z,87.53
2022-11-06T01:12:32.212Z,87.43
2022-11-06T01:13:32.285Z,87.32
2022-11-06T01:14:32.693Z,87.28
2022-11-06T01:15:32.592Z,87.08
2022-11-06T01:16:31.830Z,86.87
2022-11-06T01:17:31.905Z,86.77
2022-11-06T01:18:32.144Z,86.57
2022-11-06T01:19:32.132Z,86.57
2022-11-06T01:20:31.821Z,86.57
2022-11-06T01:21:31.732Z,86.36
2022-11-06T01:22:32.561Z,86.36
2022-11-06T01:23:31.899Z,86.36
2022-11-06T01:24:31.858Z,86.25
2022-11-06T01:25:31.750Z,86.05
2022-11-06T01:26:38.146Z,86.15
2022-11-06T01:27:31.699Z,86.15
2022-11-06T01:28:31.780Z,85.95
2022-11-06T01:29:31.710Z,85.85
2022-11-06T01:30:31.700Z,85.85
2022-11-06T01:31:31.880Z,85.85
2022-11-06T01:32:31.818Z,85.71
2022-11-06T01:33:31.657Z,85.50
2022-11-06T01:34:31.657Z,85.64
2022-11-06T01:35:31.656Z,85.30
2022-11-06T01:36:31.769Z,85.30
2022-11-06T01:37:31.654Z,85.39
2022-11-06T01:38:31.890Z,85.50
2022-11-06T01:39:31.766Z,85.60
2022-11-06T01:40:31.804Z,85.71
2022-11-06T01:41:32.078Z,85.85
2022-11-06T01:42:32.217Z,86.05
2022-11-06T01:43:32.226Z,86.15
2022-11-06T01:44:31.617Z,86.15
2022-11-06T01:45:31.579Z,86.15
2022-11-06T01:46:31.636Z,86.25
2022-11-06T01:47:31.647Z,86.15
2022-11-06T01:48:31.651Z,86.25
2022-11-06T01:49:31.737Z,86.25
2022-11-06T01:50:31.534Z,86.36
2022-11-06T01:51:31.528Z,86.57
2022-11-06T01:52:31.534Z,86.57
2022-11-06T01:53:31.536Z,86.57
2022-11-06T01:54:31.545Z,86.66
2022-11-06T01:55:31.496Z,86.66
2022-11-06T01:56:31.495Z,86.57
2022-11-06T01:57:31.564Z,86.57
2022-11-06T01:58:31.563Z,86.57
2022-11-06T01:59:31.575Z,86.77
2022-11-06T02:00:31.515Z,86.77
2022-11-06T02:01:31.762Z,86.87
2022-11-06T02:02:31.698Z,86.87
2022-11-06T02:03:31.627Z,86.98
2022-11-06T02:04:31.604Z,87.08
2022-11-06T02:05:31.613Z,87.08
2022-11-06T02:06:31.563Z,86.98
2022-11-06T02:07:31.423Z,87.22
2022-11-06T02:08:31.429Z,87.18
2022-11-06T02:09:31.792Z,87.22
2022-11-06T02:10:31.492Z,87.18
2022-11-06T02:11:31.451Z,87.43
2022-11-06T02:12:31.464Z,87.22
2022-11-06T02:13:31.611Z,87.12
2022-11-06T02:14:31.612Z,87.12
2022-11-06T02:15:31.620Z,87.43
2022-11-06T02:16:31.759Z,87.43
2022-11-06T02:17:31.638Z,87.43
2022-11-06T02:18:31.846Z,87.43
2022-11-06T02:19:31.451Z,87.53
2022-11-06T02:20:31.450Z,87.53
2022-11-06T02:21:31.349Z,87.53
2022-11-06T02:22:31.352Z,87.53
2022-11-06T02:23:31.338Z,87.43
2022-11-06T02:24:31.344Z,87.53
2022-11-06T02:25:31.360Z,87.53
2022-11-06T02:26:31.278Z,87.63
2022-11-06T02:27:31.278Z,87.63
2022-11-06T02:28:31.507Z,87.63
2022-11-06T02:29:31.307Z,87.73
2022-11-06T02:30:31.247Z,87.84
2022-11-06T02:31:31.345Z,87.94
2022-11-06T02:32:31.537Z,87.98
2022-11-06T02:33:31.335Z,87.98
2022-11-06T02:34:31.346Z,87.98
2022-11-06T02:35:31.556Z,88.08
2022-11-06T02:36:31.567Z,88.18
2022-11-06T02:37:31.366Z,88.29
2022-11-06T02:38:31.575Z,88.39
2022-11-06T02:39:31.244Z,88.29
2022-11-06T02:40:31.185Z,88.08
2022-11-06T02:41:31.193Z,88.08
2022-11-06T02:42:31.253Z,88.18
2022-11-06T02:43:31.218Z,88.18
2022-11-06T02:44:31.214Z,88.39
2022-11-06T02:45:31.224Z,88.49
2022-11-06T02:46:31.283Z,88.49
2022-11-06T02:47:31.223Z,88.59
2022-11-06T02:48:31.241Z,88.59
2022-11-06T02:49:31.181Z,88.74
2022-11-06T02:50:31.141Z,88.80
2022-11-06T02:51:31.260Z,88.95
2022-11-06T02:52:31.262Z,88.84
2022-11-06T02:53:31.312Z,88.95
2022-11-06T02:54:31.270Z,88.84
2022-11-06T02:55:31.493Z,89.04
2022-11-06T02:56:31.498Z,88.74
2022-11-06T02:57:31.500Z,88.84
2022-11-06T02:58:31.100Z,88.70
2022-11-06T02:59:31.725Z,88.95
2022-11-06T03:00:31.732Z,88.84
2022-11-06T03:01:31.867Z,88.74
2022-11-06T03:02:31.174Z,88.84
2022-11-06T03:03:31.131Z,88.74
2022-11-06T03:04:31.349Z,88.95
2022-11-06T03:05:31.844Z,88.84
2022-11-06T03:06:31.241Z,88.84
2022-11-06T03:07:31.190Z,88.84
2022-11-06T03:08:31.172Z,88.95
2022-11-06T03:10:56.965Z,89.15
2022-11-06T03:11:56.999Z,89.25
2022-11-06T03:12:57.040Z,89.25
2022-11-06T03:13:57.017Z,89.25
2022-11-06T03:14:57.017Z,89.15
2022-11-06T03:15:57.020Z,89.25
2022-11-06T03:16:57.026Z,89.15
2022-11-06T03:17:57.045Z,89.25
2022-11-06T03:18:57.037Z,89.25
2022-11-06T03:19:57.056Z,89.25
2022-11-06T03:20:57.054Z,89.15
2022-11-06T03:21:56.897Z,89.04
2022-11-06T03:22:56.935Z,89.15
2022-11-06T03:23:57.015Z,89.15
2022-11-06T03:24:57.027Z,89.15
2022-11-06T03:25:57.039Z,89.15
2022-11-06T03:26:56.854Z,89.36
2022-11-06T03:27:56.912Z,89.46
2022-11-06T03:28:56.905Z,89.36
2022-11-06T03:29:56.855Z,89.46
2022-11-06T03:30:57.060Z,89.36
2022-11-06T03:31:56.823Z,89.36
2022-11-06T03:32:56.823Z,89.36
2022-11-06T03:33:56.873Z,89.36
2022-11-06T03:34:57.165Z,89.36
2022-11-06T03:35:56.790Z,89.25
2022-11-06T03:36:56.802Z,89.25
2022-11-06T03:37:57.322Z,89.25
2022-11-06T03:38:57.298Z,89.25
2022-11-06T03:39:56.982Z,89.25
2022-11-06T03:40:57.322Z,89.36
2022-11-06T03:41:57.001Z,89.36
2022-11-06T03:42:56.932Z,89.36
2022-11-06T03:43:57.131Z,89.36
2022-11-06T03:44:57.430Z,89.25
2022-11-06T03:45:57.431Z,89.25
2022-11-06T03:46:56.795Z,89.04
2022-11-06T03:47:56.760Z,89.15
2022-11-06T03:48:57.460Z,89.25
2022-11-06T03:49:57.053Z,89.36
2022-11-06T03:50:56.710Z,89.36
2022-11-06T03:51:57.201Z,89.36
2022-11-06T03:52:56.706Z,89.46
2022-11-06T03:53:57.490Z,89.36
2022-11-06T03:54:57.299Z,89.46
2022-11-06T03:55:57.391Z,89.56
2022-11-06T03:56:57.521Z,89.46
2022-11-06T03:57:57.489Z,89.46
2022-11-06T03:58:56.690Z,89.56
2022-11-06T03:59:57.039Z,89.66
2022-11-06T04:00:57.125Z,89.66
2022-11-06T04:01:56.899Z,89.87
2022-11-06T04:02:57.650Z,89.97
2022-11-06T04:03:56.866Z,90.08
2022-11-06T04:04:56.658Z,90.18
2022-11-06T04:05:56.668Z,90.18
2022-11-06T04:06:56.602Z,89.97
2022-11-06T04:07:56.686Z,89.97
2022-11-06T04:08:56.595Z,89.97
2022-11-06T04:09:56.695Z,90.18
2022-11-06T04:10:56.783Z,90.32
2022-11-06T04:11:56.785Z,90.53
2022-11-06T04:12:56.798Z,90.63
2022-11-06T04:13:56.806Z,90.63
2022-11-06T04:14:56.934Z,90.63
2022-11-06T04:15:56.955Z,90.53
2022-11-06T04:16:56.545Z,90.53
2022-11-06T04:17:56.567Z,90.63
2022-11-06T04:18:56.563Z,90.63
2022-11-06T04:19:56.553Z,90.63
2022-11-06T04:20:56.593Z,90.63
2022-11-06T04:21:56.485Z,90.73
2022-11-06T04:22:56.497Z,90.73
2022-11-06T04:23:56.466Z,90.73
2022-11-06T04:24:56.474Z,90.73
2022-11-06T04:25:56.482Z,90.83
2022-11-06T04:26:56.487Z,90.83
2022-11-06T04:27:56.502Z,90.94
2022-11-06T04:28:56.508Z,91.04
2022-11-06T04:29:56.510Z,91.14
2022-11-06T04:30:56.521Z,91.35
2022-11-06T04:31:56.631Z,91.35
2022-11-06T04:33:00.071Z,91.60
2022-11-06T04:33:56.540Z,91.55
2022-11-06T04:34:56.550Z,91.45
2022-11-06T04:35:56.551Z,91.70
2022-11-06T04:36:56.389Z,91.66
2022-11-06T04:37:56.400Z,91.80
2022-11-06T04:38:56.376Z,91.80
2022-11-06T04:39:56.419Z,91.80
2022-11-06T04:40:56.410Z,91.55
2022-11-06T04:41:56.449Z,91.45
2022-11-06T04:42:56.458Z,91.45
2022-11-06T04:43:56.339Z,91.35
2022-11-06T04:44:56.338Z,91.25
2022-11-06T04:45:56.338Z,91.14
2022-11-06T04:46:56.427Z,90.94
2022-11-06T04:47:56.454Z,90.83
2022-11-06T04:48:56.541Z,90.94
2022-11-06T04:49:56.548Z,90.83
2022-11-06T04:50:56.467Z,90.94
2022-11-06T04:51:56.577Z,90.83
2022-11-06T04:52:56.498Z,90.83
2022-11-06T04:53:56.287Z,90.83
2022-11-06T04:54:56.616Z,90.94
2022-11-06T04:55:56.626Z,91.04
2022-11-06T04:56:56.635Z,91.04
2022-11-06T04:57:56.245Z,90.94
2022-11-06T04:58:56.294Z,91.04
2022-11-06T04:59:56.307Z,91.14
2022-11-06T05:00:56.310Z,91.14
2022-11-06T05:01:56.254Z,91.14
2022-11-06T05:02:56.375Z,91.14
2022-11-06T05:03:56.728Z,91.04
2022-11-06T05:04:56.235Z,90.94
2022-11-06T05:05:56.473Z,90.83
2022-11-06T05:06:56.773Z,90.83
2022-11-06T05:07:56.564Z,90.63
2022-11-06T05:08:56.571Z,90.73
2022-11-06T05:09:56.721Z,90.63
2022-11-06T05:10:56.194Z,90.38
2022-11-06T05:11:56.183Z,90.28
2022-11-06T05:12:56.193Z,90.53
2022-11-06T05:13:57.570Z,90.42
2022-11-06T05:14:56.201Z,90.42
2022-11-06T05:15:56.322Z,90.42
2022-11-06T05:16:56.336Z,90.53
2022-11-06T05:17:56.272Z,90.53
2022-11-06T05:18:56.459Z,90.53
2022-11-06T05:19:56.460Z,90.42
2022-11-06T05:20:56.191Z,90.53
2022-11-06T05:21:56.089Z,90.53
2022-11-06T05:22:56.100Z,90.53
2022-11-06T05:23:56.158Z,90.53
2022-11-06T05:24:57.541Z,90.63
2022-11-06T05:25:56.279Z,90.73
2022-11-06T05:26:59.351Z,90.83
2022-11-06T05:27:56.298Z,90.63
2022-11-06T05:28:56.389Z,90.73
2022-11-06T05:29:56.398Z,90.63
2022-11-06T05:30:56.068Z,90.42
2022-11-06T05:31:56.417Z,90.42
2022-11-06T05:32:57.490Z,90.22
2022-11-06T05:33:56.417Z,90.28
2022-11-06T05:34:56.636Z,90.42
2022-11-06T05:35:56.138Z,90.18
2022-11-06T05:36:56.767Z,90.32
2022-11-06T05:37:56.344Z,90.22
2022-11-06T05:38:56.577Z,90.32
2022-11-06T05:39:56.196Z,90.22
2022-11-06T05:40:56.999Z,90.12
2022-11-06T05:41:56.265Z,89.97
2022-11-06T05:42:57.426Z,89.97
2022-11-06T05:43:57.459Z,89.66
2022-11-06T05:44:56.943Z,89.56
2022-11-06T05:45:56.844Z,89.56
2022-11-06T05:46:56.214Z,89.36
2022-11-06T05:47:56.034Z,89.46
2022-11-06T05:48:57.364Z,89.46
2022-11-06T05:49:55.903Z,89.56
2022-11-06T05:50:56.043Z,89.66
2022-11-06T05:51:56.053Z,89.66
2022-11-06T05:52:56.063Z,89.76
2022-11-06T05:53:56.062Z,89.76
2022-11-06T05:54:56.072Z,89.66
2022-11-06T05:55:55.885Z,89.70
2022-11-06T05:56:56.060Z,89.81
2022-11-06T05:57:56.503Z,90.12
2022-11-06T05:58:55.891Z,90.22
2022-11-06T05:59:55.892Z,90.32
2022-11-06T06:00:55.892Z,90.42
2022-11-06T06:01:56.060Z,90.32
2022-11-06T06:02:56.073Z,90.22
2022-11-06T06:03:55.926Z,90.32
2022-11-06T06:04:56.018Z,90.01
2022-11-06T06:05:55.904Z,90.01
2022-11-06T06:06:55.808Z,89.91
2022-11-06T06:07:55.782Z,89.81
2022-11-06T06:08:55.778Z,89.81
2022-11-06T06:09:55.781Z,89.91
2022-11-06T06:10:55.841Z,90.01
2022-11-06T06:11:55.778Z,89.91
2022-11-06T06:12:55.993Z,89.91
2022-11-06T06:13:55.772Z,89.81
2022-11-06T06:14:56.024Z,90.01
2022-11-06T06:15:56.021Z,89.91
2022-11-06T06:16:55.789Z,89.70
2022-11-06T06:17:56.262Z,89.81
2022-11-06T06:18:55.768Z,89.81
2022-11-06T06:19:55.719Z,89.70
2022-11-06T06:20:55.728Z,89.70
2022-11-06T06:21:56.355Z,89.70
2022-11-06T06:22:55.898Z,89.60
2022-11-06T06:23:55.688Z,89.70
2022-11-06T06:24:55.888Z,89.60
2022-11-06T06:25:56.500Z,89.70
2022-11-06T06:26:55.744Z,89.70
2022-11-06T06:27:55.729Z,89.91
2022-11-06T06:28:55.645Z,89.91
2022-11-06T06:29:55.653Z,90.01
2022-11-06T06:31:01.004Z,90.12
2022-11-06T06:31:55.656Z,90.22
2022-11-06T06:32:55.694Z,90.22
2022-11-06T06:33:55.624Z,89.91
2022-11-06T06:34:55.870Z,89.91
2022-11-06T06:35:55.845Z,90.01
2022-11-06T06:36:55.656Z,90.12
2022-11-06T06:37:55.826Z,90.01
2022-11-06T06:38:55.924Z,90.01
2022-11-06T06:39:55.725Z,89.91
2022-11-06T06:40:55.603Z,89.91
2022-11-06T06:41:55.783Z,90.01
2022-11-06T06:42:55.621Z,90.01
2022-11-06T06:43:55.564Z,89.91
2022-11-06T06:44:55.563Z,90.01
2022-11-06T06:45:55.601Z,90.01
2022-11-06T06:46:55.622Z,90.01
2022-11-06T06:47:55.776Z,90.01
2022-11-06T06:48:55.542Z,90.01
2022-11-06T06:49:55.521Z,90.26
2022-11-06T06:50:55.743Z,90.36
2022-11-06T06:51:55.750Z,90.36
2022-11-06T06:52:55.628Z,90.12
2022-11-06T06:53:55.580Z,90.12
2022-11-06T06:54:55.766Z,90.22
2022-11-06T06:55:55.810Z,90.12
2022-11-06T06:56:56.941Z,90.32
2022-11-06T06:57:55.760Z,90.22
2022-11-06T06:58:55.562Z,90.01
2022-11-06T06:59:55.557Z,90.12
2022-11-06T07:00:55.825Z,90.01
2022-11-06T07:01:55.689Z,90.12
2022-11-06T07:02:55.570Z,90.12
2022-11-06T07:03:59.870Z,90.12
2022-11-06T07:04:55.687Z,90.22
2022-11-06T07:05:55.413Z,90.22
2022-11-06T07:06:55.703Z,90.32
2022-11-06T07:07:55.483Z,90.67
2022-11-06T07:08:55.407Z,90.67
2022-11-06T07:09:55.709Z,90.67
2022-11-06T07:10:55.739Z,90.53
2022-11-06T07:11:55.380Z,90.42
2022-11-06T07:12:55.429Z,90.63
2022-11-06T07:13:55.460Z,90.22
2022-11-06T07:14:55.876Z,90.12
2022-11-06T07:15:55.397Z,90.01
2022-11-06T07:16:55.461Z,89.81
2022-11-06T07:17:55.466Z,89.76
2022-11-06T07:18:55.467Z,89.46
2022-11-06T07:19:55.516Z,89.56
2022-11-06T07:20:55.324Z,89.36
2022-11-06T07:21:55.609Z,89.46
2022-11-06T07:22:55.308Z,89.25
2022-11-06T07:23:55.307Z,89.36
2022-11-06T07:24:55.622Z,89.04
2022-11-06T07:25:55.314Z,88.95
2022-11-06T07:26:55.604Z,88.95
2022-11-06T07:27:57.968Z,88.95
2022-11-06T07:28:55.284Z,88.64
2022-11-06T07:29:55.328Z,88.74
2022-11-06T07:30:55.303Z,88.49
2022-11-06T07:31:55.301Z,88.49
2022-11-06T07:32:55.315Z,88.08
2022-11-06T07:33:55.321Z,88.08
2022-11-06T07:34:55.334Z,87.88
2022-11-06T07:35:55.381Z,87.88
2022-11-06T07:36:55.383Z,87.88
2022-11-06T07:37:55.391Z,87.98
2022-11-06T07:38:55.465Z,88.18
2022-11-06T07:39:55.191Z,88.08
2022-11-06T07:40:55.201Z,87.88
2022-11-06T07:41:55.689Z,88.29
2022-11-06T07:42:55.673Z,88.29
2022-11-06T07:43:56.628Z,88.18
2022-11-06T07:44:55.193Z,88.08
2022-11-06T07:45:55.627Z,88.18
2022-11-06T07:46:55.859Z,88.18
2022-11-06T07:47:59.052Z,88.08
2022-11-06T07:48:55.499Z,87.73
2022-11-06T07:49:55.259Z,87.73
2022-11-06T07:50:55.510Z,87.73
2022-11-06T07:51:55.676Z,87.63
2022-11-06T07:52:55.098Z,87.53
2022-11-06T07:53:55.087Z,87.43
2022-11-06T07:54:55.089Z,87.43
2022-11-06T07:55:55.268Z,87.53
2022-11-06T07:56:55.268Z,87.43
2022-11-06T07:57:55.277Z,87.63
2022-11-06T07:58:55.281Z,87.63
2022-11-06T07:59:55.288Z,87.53
2022-11-06T08:00:55.175Z,87.63
2022-11-06T08:01:55.239Z,87.63
2022-11-06T08:02:55.064Z,87.63
2022-11-06T08:03:55.125Z,87.28
2022-11-06T08:04:55.135Z,86.98
2022-11-06T08:05:55.177Z,86.77
2022-11-06T08:06:55.369Z,86.36
2022-11-06T08:07:55.391Z,86.36
2022-11-06T08:08:58.895Z,86.15
2022-11-06T08:09:55.025Z,86.42
2022-11-06T08:10:54.999Z,86.11
2022-11-06T08:11:55.374Z,86.01
2022-11-06T08:12:54.964Z,85.80
2022-11-06T08:13:55.733Z,85.80
2022-11-06T08:14:54.976Z,85.50
2022-11-06T08:15:55.006Z,85.30
2022-11-06T08:16:55.003Z,85.30
2022-11-06T08:17:55.025Z,85.60
2022-11-06T08:18:55.222Z,85.39
2022-11-06T08:19:55.245Z,85.50
2022-11-06T08:20:55.023Z,85.56
2022-11-06T08:21:55.251Z,85.25
2022-11-06T08:22:54.921Z,85.25
2022-11-06T08:23:55.262Z,84.84
2022-11-06T08:24:55.293Z,84.95
2022-11-06T08:25:54.881Z,84.95
2022-11-06T08:26:55.070Z,84.84
2022-11-06T08:27:55.053Z,84.53
2022-11-06T08:28:55.300Z,84.53
2022-11-06T08:29:55.621Z,84.64
2022-11-06T08:30:55.098Z,84.44
2022-11-06T08:31:54.832Z,84.60
2022-11-06T08:32:54.901Z,84.29
2022-11-06T08:33:54.932Z,84.39
2022-11-06T08:34:54.819Z,84.29
2022-11-06T08:35:54.918Z,84.19
2022-11-06T08:36:54.932Z,83.88
2022-11-06T08:37:55.077Z,83.88
2022-11-06T08:38:54.940Z,83.98
2022-11-06T08:39:54.961Z,84.09
2022-11-06T08:40:54.778Z,84.29
2022-11-06T08:41:54.997Z,83.88
2022-11-06T08:42:55.025Z,83.88
2022-11-06T08:43:54.989Z,83.54
2022-11-06T08:44:54.998Z,83.44
2022-11-06T08:45:54.769Z,83.44
2022-11-06T08:46:54.999Z,83.33
2022-11-06T08:47:55.007Z,83.33
2022-11-06T08:48:54.809Z,83.13
2022-11-06T08:49:54.818Z,82.78
2022-11-06T08:50:54.735Z,82.78
2022-11-06T08:51:54.829Z,82.68
2022-11-06T08:52:54.716Z,82.57
2022-11-06T08:53:54.760Z,82.78
2022-11-06T08:54:54.686Z,82.68
2022-11-06T08:55:54.695Z,82.27
2022-11-06T08:56:54.705Z,82.57
2022-11-06T08:57:54.690Z,82.78
2022-11-06T08:58:55.860Z,82.43
2022-11-06T08:59:54.715Z,81.51
2022-11-06T09:00:54.758Z,81.21
2022-11-06T09:01:54.753Z,81.10
2022-11-06T09:02:54.655Z,81.10
2022-11-06T09:03:54.814Z,81.01
2022-11-06T09:04:54.721Z,80.39
2022-11-06T09:05:54.605Z,80.66
2022-11-06T09:06:54.869Z,80.15
2022-11-06T09:07:54.933Z,80.15
2022-11-06T09:08:54.862Z,79.64
2022-11-06T09:11:20.759Z,79.09
2022-11-06T09:12:20.774Z,79.29
2022-11-06T09:13:20.785Z,79.39
2022-11-06T09:14:20.795Z,79.29
2022-11-06T09:15:20.790Z,79.70
2022-11-06T09:16:20.808Z,79.70
2022-11-06T09:17:21.009Z,78.99
2022-11-06T09:18:21.021Z,79.09
2022-11-06T09:19:21.017Z,78.99
2022-11-06T09:20:21.028Z,78.75
2022-11-06T09:21:20.498Z,78.44
2022-11-06T09:22:20.468Z,79.57
2022-11-06T09:23:20.477Z,78.95
2022-11-06T09:24:32.289Z,78.20
2022-11-06T09:25:20.448Z,78.09
2022-11-06T09:26:20.466Z,77.89
2022-11-06T09:27:20.477Z,77.69
2022-11-06T09:28:20.490Z,77.69
2022-11-06T09:29:20.486Z,77.45
2022-11-06T09:30:20.497Z,77.75
2022-11-06T09:31:20.455Z,77.65
2022-11-06T09:32:20.515Z,77.34
2022-11-06T09:33:20.908Z,76.93
2022-11-06T09:34:20.514Z,76.93
2022-11-06T09:35:20.532Z,77.11
2022-11-06T09:36:20.513Z,76.70
2022-11-06T09:37:20.364Z,76.09
2022-11-06T09:38:20.375Z,75.98
2022-11-06T09:39:20.385Z,76.29
2022-11-06T09:40:20.375Z,76.50
2022-11-06T09:41:20.363Z,76.50
2022-11-06T09:42:20.374Z,76.50
2022-11-06T09:43:31.721Z,75.68
2022-11-06T09:44:20.383Z,75.74
2022-11-06T09:45:20.383Z,75.95
2022-11-06T09:46:20.406Z,75.74
2022-11-06T09:47:20.403Z,76.15
2022-11-06T09:48:20.424Z,76.15
2022-11-06T09:49:20.322Z,75.85
2022-11-06T09:50:20.433Z,75.30
2022-11-06T09:51:20.459Z,75.23
2022-11-06T09:52:20.441Z,75.34
2022-11-06T09:53:20.530Z,75.10
2022-11-06T09:54:20.453Z,75.10
2022-11-06T09:55:20.251Z,74.58
2022-11-06T09:56:20.230Z,74.62
2022-11-06T09:57:20.469Z,74.62
2022-11-06T09:58:20.281Z,74.90
2022-11-06T09:59:20.490Z,75.30
2022-11-06T10:00:20.501Z,74.79
2022-11-06T10:01:25.966Z,74.49
2022-11-06T10:02:20.631Z,74.69
2022-11-06T10:03:20.511Z,75.16
2022-11-06T10:04:20.520Z,74.25
2022-11-06T10:05:20.528Z,72.72
2022-11-06T10:06:20.529Z,73.30
2022-11-06T10:07:20.158Z,72.25
2022-11-06T10:08:20.217Z,71.57
2022-11-06T10:09:20.548Z,70.21
2022-11-06T10:10:20.148Z,70.08
2022-11-06T10:11:20.347Z,68.55
2022-11-06T10:12:20.348Z,68.12
2022-11-06T10:13:20.170Z,67.68
2022-11-06T10:14:20.371Z,67.34
2022-11-06T10:15:20.098Z,67.24
2022-11-06T10:16:20.176Z,66.88
2022-11-06T10:17:20.588Z,66.47
2022-11-06T10:18:20.597Z,65.83
2022-11-06T10:19:20.476Z,64.61
2022-11-06T10:20:26.536Z,65.45
2022-11-06T10:21:20.206Z,65.39
2022-11-06T10:22:20.827Z,66.50
2022-11-06T10:23:20.066Z,66.47
2022-11-06T10:24:20.067Z,65.32
2022-11-06T10:25:20.057Z,65.62
2022-11-06T10:26:20.070Z,64.21
2022-11-06T10:27:20.055Z,64.79
2022-11-06T10:28:20.256Z,63.87
2022-11-06T10:29:20.265Z,63.24
2022-11-06T10:30:20.065Z,63.37
2022-11-06T10:31:20.287Z,63.37
2022-11-06T10:32:20.337Z,63.04
2022-11-06T10:33:20.497Z,63.13
2022-11-06T10:34:20.116Z,63.57
2022-11-06T10:35:20.114Z,64.11
2022-11-06T10:36:20.115Z,65.05
2022-11-06T10:37:20.125Z,64.95
2022-11-06T10:38:19.964Z,64.95
2022-11-06T10:39:20.144Z,65.69
2022-11-06T10:40:20.344Z,66.53
2022-11-06T10:41:20.362Z,67.21
2022-11-06T10:42:19.935Z,66.30
2022-11-06T10:43:19.943Z,66.02
2022-11-06T10:44:20.374Z,67.03
2022-11-06T10:45:20.393Z,66.86
2022-11-06T10:46:20.593Z,67.30
2022-11-06T10:47:20.595Z,67.54
2022-11-06T10:48:19.975Z,67.97
2022-11-06T10:49:20.603Z,69.33
2022-11-06T10:50:20.464Z,69.94
2022-11-06T10:51:20.611Z,69.64
2022-11-06T10:52:20.735Z,70.07
2022-11-06T10:53:20.031Z,69.87
2022-11-06T10:54:19.948Z,70.01
2022-11-06T10:55:20.693Z,71.12
2022-11-06T10:56:21.257Z,71.84
2022-11-06T10:57:19.853Z,70.72
2022-11-06T10:58:20.652Z,71.02
2022-11-06T10:59:21.109Z,70.99
2022-11-06T11:00:20.542Z,71.40
2022-11-06T11:01:19.923Z,70.48
2022-11-06T11:02:20.885Z,70.55
2022-11-06T11:03:19.871Z,70.35
2022-11-06T11:04:19.871Z,70.55
2022-11-06T11:05:19.812Z,70.45
2022-11-06T11:06:19.892Z,69.81
2022-11-06T11:07:21.766Z,69.70
2022-11-06T11:08:20.119Z,69.91
2022-11-06T11:09:20.113Z,69.40
2022-11-06T11:10:19.941Z,68.89
2022-11-06T11:11:19.750Z,68.28
2022-11-06T11:12:20.133Z,68.99
2022-11-06T11:13:20.351Z,68.66
2022-11-06T11:14:20.149Z,68.05
2022-11-06T11:15:19.742Z,68.15
2022-11-06T11:16:20.362Z,67.84
2022-11-06T11:17:20.400Z,67.64
2022-11-06T11:18:20.170Z,67.47
2022-11-06T11:19:20.419Z,68.08
2022-11-06T11:20:19.979Z,68.89
2022-11-06T11:21:19.681Z,68.28
2022-11-06T11:22:20.614Z,67.74
2022-11-06T11:23:20.660Z,67.74
2022-11-06T11:24:19.800Z,67.44
2022-11-06T11:25:19.810Z,67.64
2022-11-06T11:26:20.530Z,67.74
2022-11-06T11:27:20.267Z,67.57
2022-11-06T11:28:19.639Z,67.77
2022-11-06T11:29:19.832Z,68.28
2022-11-06T11:30:19.648Z,69.20
2022-11-06T11:31:19.659Z,68.59
2022-11-06T11:32:19.587Z,68.11
2022-11-06T11:33:19.877Z,68.82
2022-11-06T11:34:19.875Z,68.52
2022-11-06T11:35:19.889Z,68.62
2022-11-06T11:36:19.898Z,68.21
2022-11-06T11:37:19.927Z,67.91
2022-11-06T11:38:19.560Z,67.91
2022-11-06T11:39:20.118Z,68.41
2022-11-06T11:40:19.545Z,68.11
2022-11-06T11:41:19.538Z,68.21
2022-11-06T11:42:19.548Z,67.40
2022-11-06T11:43:19.719Z,65.74
2022-11-06T11:44:19.736Z,66.05
2022-11-06T11:45:19.736Z,66.66
2022-11-06T11:46:19.775Z,66.83
2022-11-06T11:47:19.787Z,66.63
2022-11-06T11:48:19.955Z,65.61
2022-11-06T11:49:19.966Z,66.52
2022-11-06T11:50:19.995Z,65.78
2022-11-06T11:51:19.497Z,65.78
2022-11-06T11:52:19.508Z,66.49
2022-11-06T11:53:20.197Z,65.99
2022-11-06T11:54:19.504Z,65.99
2022-11-06T11:55:19.436Z,65.68
2022-11-06T11:56:36.204Z,66.39
2022-11-06T11:57:19.428Z,65.71
2022-11-06T11:58:19.420Z,65.71
2022-11-06T11:59:19.435Z,65.81
2022-11-06T12:00:19.423Z,66.32
2022-11-06T12:01:19.513Z,65.51
2022-11-06T12:02:25.376Z,65.51
2022-11-06T12:03:19.559Z,66.22
2022-11-06T12:04:19.543Z,66.22
2022-11-06T12:05:19.502Z,64.49
2022-11-06T12:06:19.505Z,64.79
2022-11-06T12:07:19.514Z,65.00
2022-11-06T12:08:19.523Z,65.00
2022-11-06T12:09:19.531Z,65.10
2022-11-06T12:10:19.534Z,64.90
2022-11-06T12:11:19.546Z,64.56
2022-11-06T12:12:19.693Z,64.56
2022-11-06T12:13:19.717Z,64.97
2022-11-06T12:14:19.720Z,65.17
2022-11-06T12:15:19.317Z,64.46
2022-11-06T12:16:19.362Z,64.87
2022-11-06T12:17:19.356Z,63.24
2022-11-06T12:18:19.334Z,63.45
2022-11-06T12:19:19.343Z,63.95
2022-11-06T12:20:19.395Z,63.34
2022-11-06T12:21:19.402Z,62.66
2022-11-06T12:22:19.255Z,63.48
2022-11-06T12:23:19.263Z,63.95
2022-11-06T12:24:19.271Z,64.06
2022-11-06T12:25:19.252Z,63.85
2022-11-06T12:26:19.221Z,62.13
2022-11-06T12:27:19.232Z,62.43
2022-11-06T12:28:19.221Z,62.13
2022-11-06T12:29:19.254Z,61.62
2022-11-06T12:30:19.210Z,61.52
2022-11-06T12:31:19.216Z,61.52
2022-11-06T12:32:19.220Z,61.52
2022-11-06T12:33:19.231Z,62.23
2022-11-06T12:34:19.231Z,62.63
2022-11-06T12:35:19.162Z,62.05
2022-11-06T12:36:19.251Z,62.36
2022-11-06T12:37:19.261Z,62.59
2022-11-06T12:38:19.262Z,62.79
2022-11-06T12:39:19.269Z,63.20
2022-11-06T12:40:24.484Z,63.71
2022-11-06T12:41:19.341Z,63.60
2022-11-06T12:42:19.291Z,63.71
2022-11-06T12:43:19.354Z,63.98
2022-11-06T12:44:19.361Z,63.48
2022-11-06T12:45:19.109Z,63.78
2022-11-06T12:46:19.221Z,63.58
2022-11-06T12:47:22.668Z,64.59
2022-11-06T12:48:19.069Z,63.58
2022-11-06T12:49:19.400Z,64.18
2022-11-06T12:50:19.188Z,63.28
2022-11-06T12:51:19.549Z,63.78
2022-11-06T12:52:19.356Z,63.37
2022-11-06T12:53:19.047Z,62.87
2022-11-06T12:54:19.059Z,64.39
2022-11-06T12:55:19.038Z,64.06